sensor_id;sensor_type;location;lat;lon;timestamp;pressure;altitude;pressure_sealevel;temperature;humidity
19086;BME280;9675;51.538;6.728;2023-02-14T00:01:07;103138.34;;;8.89;100.00
19086;BME280;9675;51.538;6.728;2023-02-14T00:03:34;103145.91;;;8.88;100.00
19086;BME280;9675;51.538;6.728;2023-02-14T00:06:06;103148.19;;;8.85;100.00
19086;BME280;9675;51.538;6.728;2023-02-14T00:08:34;103141.84;;;8.81;100.00
19086;BME280;9675;51.538;6.728;2023-02-14T00:11:02;103142.50;;;8.79;100.00
19086;BME280;9675;51.538;6.728;2023-02-14T00:13:29;103132.06;;;8.77;100.00
19086;BME280;9675;51.538;6.728;2023-02-14T00:15:56;103140.53;;;8.76;100.00
19086;BME280;9675;51.538;6.728;2023-02-14T00:18:22;103144.63;;;8.74;100.00
19086;BME280;9675;51.538;6.728;2023-02-14T00:21:10;103144.31;;;8.71;100.00
19086;BME280;9675;51.538;6.728;2023-02-14T00:23:38;103141.47;;;8.68;100.00
19086;BME280;9675;51.538;6.728;2023-02-14T00:26:12;103130.16;;;8.66;100.00
19086;BME280;9675;51.538;6.728;2023-02-14T00:28:39;103130.94;;;8.65;100.00
19086;BME280;9675;51.538;6.728;2023-02-14T00:31:07;103127.16;;;8.62;100.00
19086;BME280;9675;51.538;6.728;2023-02-14T00:33:34;103128.69;;;8.60;100.00
19086;BME280;9675;51.538;6.728;2023-02-14T00:36:02;103125.97;;;8.58;100.00
19086;BME280;9675;51.538;6.728;2023-02-14T00:38:30;103131.88;;;8.57;100.00
19086;BME280;9675;51.538;6.728;2023-02-14T00:40:58;103139.56;;;8.57;100.00
19086;BME280;9675;51.538;6.728;2023-02-14T00:43:25;103132.34;;;8.53;100.00
19086;BME280;9675;51.538;6.728;2023-02-14T00:45:52;103135.81;;;8.53;100.00
19086;BME280;9675;51.538;6.728;2023-02-14T00:48:19;103130.53;;;8.52;100.00
19086;BME280;9675;51.538;6.728;2023-02-14T00:50:46;103139.75;;;8.50;100.00
19086;BME280;9675;51.538;6.728;2023-02-14T00:53:14;103127.53;;;8.47;100.00
19086;BME280;9675;51.538;6.728;2023-02-14T00:55:44;103133.56;;;8.48;100.00
19086;BME280;9675;51.538;6.728;2023-02-14T00:58:13;103130.69;;;8.45;100.00
19086;BME280;9675;51.538;6.728;2023-02-14T01:00:40;103127.84;;;8.42;100.00
19086;BME280;9675;51.538;6.728;2023-02-14T01:03:07;103131.03;;;8.39;100.00
19086;BME280;9675;51.538;6.728;2023-02-14T01:05:34;103138.44;;;8.36;100.00
19086;BME280;9675;51.538;6.728;2023-02-14T01:08:01;103141.75;;;8.35;100.00
19086;BME280;9675;51.538;6.728;2023-02-14T01:10:28;103140.09;;;8.36;100.00
19086;BME280;9675;51.538;6.728;2023-02-14T01:12:55;103144.31;;;8.35;100.00
19086;BME280;9675;51.538;6.728;2023-02-14T01:15:23;103141.47;;;8.32;100.00
19086;BME280;9675;51.538;6.728;2023-02-14T01:17:51;103142.09;;;8.30;100.00
19086;BME280;9675;51.538;6.728;2023-02-14T01:20:18;103142.09;;;8.30;100.00
19086;BME280;9675;51.538;6.728;2023-02-14T01:22:45;103136.94;;;8.30;100.00
19086;BME280;9675;51.538;6.728;2023-02-14T01:25:13;103138.44;;;8.28;100.00
19086;BME280;9675;51.538;6.728;2023-02-14T01:27:40;103134.81;;;8.26;100.00
19086;BME280;9675;51.538;6.728;2023-02-14T01:30:09;103131.34;;;8.25;100.00
19086;BME280;9675;51.538;6.728;2023-02-14T01:32:38;103139.66;;;8.23;100.00
19086;BME280;9675;51.538;6.728;2023-02-14T01:35:05;103130.16;;;8.22;100.00
19086;BME280;9675;51.538;6.728;2023-02-14T01:37:32;103138.75;;;8.22;100.00
19086;BME280;9675;51.538;6.728;2023-02-14T01:40:00;103129.09;;;8.20;100.00
19086;BME280;9675;51.538;6.728;2023-02-14T01:42:28;103125.50;;;8.18;100.00
19086;BME280;9675;51.538;6.728;2023-02-14T01:45:02;103132.13;;;8.16;100.00
19086;BME280;9675;51.538;6.728;2023-02-14T01:47:33;103132.13;;;8.16;100.00
19086;BME280;9675;51.538;6.728;2023-02-14T01:50:12;103130.31;;;8.15;100.00
19086;BME280;9675;51.538;6.728;2023-02-14T01:52:46;103130.19;;;8.13;100.00
19086;BME280;9675;51.538;6.728;2023-02-14T01:55:19;103125.66;;;8.10;100.00
19086;BME280;9675;51.538;6.728;2023-02-14T01:57:51;103122.81;;;8.07;100.00
19086;BME280;9675;51.538;6.728;2023-02-14T02:00:21;103127.78;;;8.06;100.00
19086;BME280;9675;51.538;6.728;2023-02-14T02:03:07;103122.50;;;8.04;100.00
19086;BME280;9675;51.538;6.728;2023-02-14T02:05:40;103126.59;;;8.02;100.00
19086;BME280;9675;51.538;6.728;2023-02-14T02:08:08;103111.66;;;7.98;100.00
19086;BME280;9675;51.538;6.728;2023-02-14T02:10:35;103123.72;;;7.99;100.00
19086;BME280;9675;51.538;6.728;2023-02-14T02:13:07;103119.06;;;7.95;100.00
19086;BME280;9675;51.538;6.728;2023-02-14T02:15:44;103117.41;;;7.96;100.00
19086;BME280;9675;51.538;6.728;2023-02-14T02:18:23;103118.91;;;7.94;100.00
19086;BME280;9675;51.538;6.728;2023-02-14T02:21:37;103114.09;;;7.88;100.00
19086;BME280;9675;51.538;6.728;2023-02-14T02:24:24;103114.09;;;7.88;100.00
19086;BME280;9675;51.538;6.728;2023-02-14T02:27:26;103108.66;;;7.85;100.00
19086;BME280;9675;51.538;6.728;2023-02-14T02:30:51;103112.59;;;7.82;100.00
19086;BME280;9675;51.538;6.728;2023-02-14T02:33:56;103097.81;;;7.79;100.00
19086;BME280;9675;51.538;6.728;2023-02-14T02:36:55;103093.91;;;7.74;100.00
19086;BME280;9675;51.538;6.728;2023-02-14T02:39:51;103096.47;;;7.74;100.00
19086;BME280;9675;51.538;6.728;2023-02-14T02:42:35;103088.50;;;7.71;100.00
19086;BME280;9675;51.538;6.728;2023-02-14T02:45:19;103087.44;;;7.69;100.00
19086;BME280;9675;51.538;6.728;2023-02-14T02:47:57;103098.44;;;7.68;100.00
19086;BME280;9675;51.538;6.728;2023-02-14T02:50:32;103087.91;;;7.65;100.00
19086;BME280;9675;51.538;6.728;2023-02-14T02:53:27;103099.06;;;7.65;100.00
19086;BME280;9675;51.538;6.728;2023-02-14T02:55:59;103086.81;;;7.63;100.00
19086;BME280;9675;51.538;6.728;2023-02-14T02:58:50;103093.59;;;7.62;100.00
19086;BME280;9675;51.538;6.728;2023-02-14T03:01:22;103090.13;;;7.62;100.00
19086;BME280;9675;51.538;6.728;2023-02-14T03:03:56;103092.56;;;7.60;100.00
19086;BME280;9675;51.538;6.728;2023-02-14T03:06:43;103092.25;;;7.57;100.00
19086;BME280;9675;51.538;6.728;2023-02-14T03:09:52;103087.75;;;7.55;100.00
19086;BME280;9675;51.538;6.728;2023-02-14T03:12:49;103093.63;;;7.54;100.00
19086;BME280;9675;51.538;6.728;2023-02-14T03:15:31;103091.81;;;7.53;100.00
19086;BME280;9675;51.538;6.728;2023-02-14T03:18:08;103088.22;;;7.51;100.00
19086;BME280;9675;51.538;6.728;2023-02-14T03:20:48;103088.22;;;7.51;100.00
19086;BME280;9675;51.538;6.728;2023-02-14T03:23:23;103088.81;;;7.48;100.00
19086;BME280;9675;51.538;6.728;2023-02-14T03:26:08;103093.50;;;7.44;100.00
19086;BME280;9675;51.538;6.728;2023-02-14T03:28:44;103091.66;;;7.43;100.00
19086;BME280;9675;51.538;6.728;2023-02-14T03:31:23;103096.63;;;7.41;100.00
19086;BME280;9675;51.538;6.728;2023-02-14T03:34:00;103093.94;;;7.40;100.00
19086;BME280;9675;51.538;6.728;2023-02-14T03:36:39;103105.69;;;7.38;100.00
19086;BME280;9675;51.538;6.728;2023-02-14T03:39:15;103098.75;;;7.37;100.00
19086;BME280;9675;51.538;6.728;2023-02-14T03:41:52;103101.78;;;7.33;100.00
19086;BME280;9675;51.538;6.728;2023-02-14T03:44:28;103104.47;;;7.25;100.00
19086;BME280;9675;51.538;6.728;2023-02-14T03:47:01;103114.13;;;7.28;100.00
19086;BME280;9675;51.538;6.728;2023-02-14T03:49:37;103113.69;;;7.23;100.00
19086;BME280;9675;51.538;6.728;2023-02-14T03:52:09;103109.94;;;7.20;100.00
19086;BME280;9675;51.538;6.728;2023-02-14T03:54:38;103112.50;;;7.20;100.00
19086;BME280;9675;51.538;6.728;2023-02-14T03:57:14;103114.88;;;7.18;100.00
19086;BME280;9675;51.538;6.728;2023-02-14T03:59:45;103121.06;;;7.20;100.00
19086;BME280;9675;51.538;6.728;2023-02-14T04:02:18;103118.50;;;7.20;100.00
19086;BME280;9675;51.538;6.728;2023-02-14T04:04:49;103111.72;;;7.12;100.00
19086;BME280;9675;51.538;6.728;2023-02-14T04:07:20;103112.91;;;7.16;100.00
19086;BME280;9675;51.538;6.728;2023-02-14T04:09:49;103109.44;;;7.15;100.00
19086;BME280;9675;51.538;6.728;2023-02-14T04:12:19;103112.63;;;7.13;100.00
19086;BME280;9675;51.538;6.728;2023-02-14T04:14:46;103106.59;;;7.12;100.00
19086;BME280;9675;51.538;6.728;2023-02-14T04:17:13;103102.97;;;7.10;100.00
19086;BME280;9675;51.538;6.728;2023-02-14T04:19:58;103109.91;;;7.11;100.00
19086;BME280;9675;51.538;6.728;2023-02-14T04:22:25;103104.47;;;7.08;100.00
19086;BME280;9675;51.538;6.728;2023-02-14T04:24:52;103101.59;;;7.05;100.00
19086;BME280;9675;51.538;6.728;2023-02-14T04:27:20;103105.97;;;7.06;100.00
19086;BME280;9675;51.538;6.728;2023-02-14T04:29:48;103102.97;;;7.02;100.00
19086;BME280;9675;51.538;6.728;2023-02-14T04:32:20;103098.75;;;7.02;100.00
19086;BME280;9675;51.538;6.728;2023-02-14T04:34:48;103096.94;;;7.01;100.00
19086;BME280;9675;51.538;6.728;2023-02-14T04:37:18;103095.56;;;6.96;100.00
19086;BME280;9675;51.538;6.728;2023-02-14T04:39:45;103089.41;;;6.94;100.00
19086;BME280;9675;51.538;6.728;2023-02-14T04:42:14;103091.78;;;6.84;100.00
19086;BME280;9675;51.538;6.728;2023-02-14T04:44:42;103096.00;;;6.83;100.00
19086;BME280;9675;51.538;6.728;2023-02-14T04:47:09;103092.22;;;6.80;100.00
19086;BME280;9675;51.538;6.728;2023-02-14T04:49:36;103086.34;;;6.81;100.00
19086;BME280;9675;51.538;6.728;2023-02-14T04:52:04;103084.53;;;6.80;100.00
19086;BME280;9675;51.538;6.728;2023-02-14T04:54:32;103081.69;;;6.77;100.00
19086;BME280;9675;51.538;6.728;2023-02-14T04:56:59;103077.31;;;6.76;100.00
19086;BME280;9675;51.538;6.728;2023-02-14T04:59:26;103076.22;;;6.74;100.00
19086;BME280;9675;51.538;6.728;2023-02-14T05:01:54;103075.38;;;6.73;100.00
19086;BME280;9675;51.538;6.728;2023-02-14T05:04:22;103070.38;;;6.75;100.00
19086;BME280;9675;51.538;6.728;2023-02-14T05:06:49;103075.38;;;6.73;100.00
19086;BME280;9675;51.538;6.728;2023-02-14T05:09:16;103074.28;;;6.71;100.00
19086;BME280;9675;51.538;6.728;2023-02-14T05:11:44;103075.78;;;6.69;100.00
19086;BME280;9675;51.538;6.728;2023-02-14T05:14:11;103073.09;;;6.68;100.00
19086;BME280;9675;51.538;6.728;2023-02-14T05:16:38;103071.28;;;6.67;100.00
19086;BME280;9675;51.538;6.728;2023-02-14T05:19:07;103072.75;;;6.65;100.00
19086;BME280;9675;51.538;6.728;2023-02-14T05:21:34;103066.72;;;6.64;100.00
19086;BME280;9675;51.538;6.728;2023-02-14T05:24:01;103061.47;;;6.63;100.00
19086;BME280;9675;51.538;6.728;2023-02-14T05:26:28;103066.28;;;6.60;100.00
19086;BME280;9675;51.538;6.728;2023-02-14T05:28:56;103055.00;;;6.58;100.00
19086;BME280;9675;51.538;6.728;2023-02-14T05:31:23;103057.22;;;6.55;100.00
19086;BME280;9675;51.538;6.728;2023-02-14T05:33:50;103057.06;;;6.53;100.00
19086;BME280;9675;51.538;6.728;2023-02-14T05:36:18;103057.69;;;6.51;100.00
19086;BME280;9675;51.538;6.728;2023-02-14T05:38:45;103057.69;;;6.51;100.00
19086;BME280;9675;51.538;6.728;2023-02-14T05:41:12;103052.56;;;6.51;100.00
19086;BME280;9675;51.538;6.728;2023-02-14T05:43:39;103045.63;;;6.50;100.00
19086;BME280;9675;51.538;6.728;2023-02-14T05:46:06;103045.00;;;6.44;100.00
19086;BME280;9675;51.538;6.728;2023-02-14T05:48:34;103042.88;;;6.39;100.00
19086;BME280;9675;51.538;6.728;2023-02-14T05:51:05;103050.84;;;6.43;100.00
19086;BME280;9675;51.538;6.728;2023-02-14T05:53:35;103048.31;;;6.43;100.00
19086;BME280;9675;51.538;6.728;2023-02-14T05:56:02;103050.72;;;6.41;100.00
19086;BME280;9675;51.538;6.728;2023-02-14T05:58:30;103051.19;;;6.37;100.00
19086;BME280;9675;51.538;6.728;2023-02-14T06:00:57;103051.31;;;6.38;100.00
19086;BME280;9675;51.538;6.728;2023-02-14T06:03:25;103052.81;;;6.36;100.00
19086;BME280;9675;51.538;6.728;2023-02-14T06:05:52;103064.53;;;6.34;100.00
19086;BME280;9675;51.538;6.728;2023-02-14T06:08:19;103057.31;;;6.30;100.00
19086;BME280;9675;51.538;6.728;2023-02-14T06:10:47;103063.91;;;6.28;100.00
19086;BME280;9675;51.538;6.728;2023-02-14T06:13:14;103057.75;;;6.26;100.00
19086;BME280;9675;51.538;6.728;2023-02-14T06:15:41;103065.84;;;6.22;100.00
19086;BME280;9675;51.538;6.728;2023-02-14T06:18:08;103065.09;;;6.23;100.00
19086;BME280;9675;51.538;6.728;2023-02-14T06:20:35;103072.78;;;6.23;100.00
19086;BME280;9675;51.538;6.728;2023-02-14T06:23:03;103071.72;;;6.21;100.00
19086;BME280;9675;51.538;6.728;2023-02-14T06:25:31;103064.78;;;6.20;100.00
19086;BME280;9675;51.538;6.728;2023-02-14T06:28:00;103071.41;;;6.18;100.00
19086;BME280;9675;51.538;6.728;2023-02-14T06:30:27;103074.69;;;6.17;100.00
19086;BME280;9675;51.538;6.728;2023-02-14T06:32:54;103077.13;;;6.16;100.00
19086;BME280;9675;51.538;6.728;2023-02-14T06:35:21;103078.59;;;6.14;100.00
19086;BME280;9675;51.538;6.728;2023-02-14T06:37:49;103080.09;;;6.12;100.00
19086;BME280;9675;51.538;6.728;2023-02-14T06:40:16;103076.47;;;6.10;100.00
19086;BME280;9675;51.538;6.728;2023-02-14T06:42:44;103081.44;;;6.08;100.00
19086;BME280;9675;51.538;6.728;2023-02-14T06:45:12;103083.81;;;6.07;100.00
19086;BME280;9675;51.538;6.728;2023-02-14T06:47:40;103088.81;;;6.05;100.00
19086;BME280;9675;51.538;6.728;2023-02-14T06:50:07;103094.66;;;6.04;100.00
19086;BME280;9675;51.538;6.728;2023-02-14T06:52:36;103094.81;;;6.06;100.00
19086;BME280;9675;51.538;6.728;2023-02-14T06:55:04;103092.09;;;6.04;100.00
19086;BME280;9675;51.538;6.728;2023-02-14T06:57:31;103095.41;;;6.03;100.00
19086;BME280;9675;51.538;6.728;2023-02-14T06:59:58;103098.69;;;6.02;100.00
19086;BME280;9675;51.538;6.728;2023-02-14T07:02:26;103101.13;;;6.01;100.00
19086;BME280;9675;51.538;6.728;2023-02-14T07:04:53;103090.72;;;5.99;100.00
19086;BME280;9675;51.538;6.728;2023-02-14T07:07:20;103094.94;;;5.98;100.00
19086;BME280;9675;51.538;6.728;2023-02-14T07:09:47;103090.56;;;5.97;100.00
19086;BME280;9675;51.538;6.728;2023-02-14T07:12:14;103087.69;;;5.94;100.00
19086;BME280;9675;51.538;6.728;2023-02-14T07:14:42;103089.50;;;5.95;100.00
19086;BME280;9675;51.538;6.728;2023-02-14T07:17:09;103080.59;;;5.92;100.00
19086;BME280;9675;51.538;6.728;2023-02-14T07:19:37;103079.38;;;5.88;100.00
19086;BME280;9675;51.538;6.728;2023-02-14T07:22:04;103078.47;;;5.88;100.00
19086;BME280;9675;51.538;6.728;2023-02-14T07:24:31;103081.19;;;5.89;100.00
19086;BME280;9675;51.538;6.728;2023-02-14T07:26:58;103089.44;;;5.87;100.00
19086;BME280;9675;51.538;6.728;2023-02-14T07:29:25;103088.94;;;5.82;100.00
19086;BME280;9675;51.538;6.728;2023-02-14T07:31:52;103086.19;;;5.81;100.00
19086;BME280;9675;51.538;6.728;2023-02-14T07:34:19;103089.53;;;5.80;100.00
19086;BME280;9675;51.538;6.728;2023-02-14T07:36:48;103092.81;;;5.79;100.00
19086;BME280;9675;51.538;6.728;2023-02-14T07:39:15;103086.06;;;5.79;100.00
19086;BME280;9675;51.538;6.728;2023-02-14T07:41:42;103085.91;;;5.78;100.00
19086;BME280;9675;51.538;6.728;2023-02-14T07:44:10;103083.16;;;5.76;100.00
19086;BME280;9675;51.538;6.728;2023-02-14T07:46:37;103085.59;;;5.75;100.00
19086;BME280;9675;51.538;6.728;2023-02-14T07:49:04;103088.88;;;5.74;100.00
19086;BME280;9675;51.538;6.728;2023-02-14T07:51:31;103085.59;;;5.75;100.00
19086;BME280;9675;51.538;6.728;2023-02-14T07:54:00;103090.69;;;5.75;100.00
19086;BME280;9675;51.538;6.728;2023-02-14T07:56:27;103093.38;;;5.76;100.00
19086;BME280;9675;51.538;6.728;2023-02-14T07:58:54;103099.75;;;5.80;100.00
19086;BME280;9675;51.538;6.728;2023-02-14T08:01:21;103100.06;;;5.83;100.00
19086;BME280;9675;51.538;6.728;2023-02-14T08:03:48;103100.38;;;5.86;100.00
19086;BME280;9675;51.538;6.728;2023-02-14T08:06:17;103090.50;;;5.89;100.00
19086;BME280;9675;51.538;6.728;2023-02-14T08:08:45;103092.16;;;5.88;100.00
19086;BME280;9675;51.538;6.728;2023-02-14T08:11:14;103095.63;;;5.89;100.00
19086;BME280;9675;51.538;6.728;2023-02-14T08:14:03;103094.13;;;5.91;100.00
19086;BME280;9675;51.538;6.728;2023-02-14T08:16:30;103098.66;;;5.93;100.00
19086;BME280;9675;51.538;6.728;2023-02-14T08:18:59;103099.13;;;5.98;100.00
19086;BME280;9675;51.538;6.728;2023-02-14T08:21:27;103100.22;;;6.00;100.00
19086;BME280;9675;51.538;6.728;2023-02-14T08:23:54;103100.50;;;6.03;100.00
19086;BME280;9675;51.538;6.728;2023-02-14T08:26:23;103096.47;;;6.05;100.00
19086;BME280;9675;51.538;6.728;2023-02-14T08:28:50;103095.88;;;6.08;100.00
19086;BME280;9675;51.538;6.728;2023-02-14T08:31:23;103097.50;;;6.07;100.00
19086;BME280;9675;51.538;6.728;2023-02-14T08:33:50;103102.63;;;6.07;100.00
19086;BME280;9675;51.538;6.728;2023-02-14T08:36:18;103096.03;;;6.09;100.00
19086;BME280;9675;51.538;6.728;2023-02-14T08:38:45;103101.44;;;6.12;100.00
19086;BME280;9675;51.538;6.728;2023-02-14T08:41:13;103095.59;;;6.13;100.00
19086;BME280;9675;51.538;6.728;2023-02-14T08:43:42;103095.16;;;6.17;100.00
19086;BME280;9675;51.538;6.728;2023-02-14T08:46:10;103097.31;;;6.21;100.00
19086;BME280;9675;51.538;6.728;2023-02-14T08:48:38;103099.25;;;6.24;100.00
19086;BME280;9675;51.538;6.728;2023-02-14T08:51:10;103098.81;;;6.28;100.00
19086;BME280;9675;51.538;6.728;2023-02-14T08:53:38;103098.25;;;6.30;100.00
19086;BME280;9675;51.538;6.728;2023-02-14T08:56:08;103100.38;;;6.34;100.00
19086;BME280;9675;51.538;6.728;2023-02-14T08:58:36;103097.53;;;6.40;100.00
19086;BME280;9675;51.538;6.728;2023-02-14T09:01:09;103097.25;;;6.46;100.00
19086;BME280;9675;51.538;6.728;2023-02-14T09:03:37;103092.59;;;6.50;100.00
19086;BME280;9675;51.538;6.728;2023-02-14T09:06:06;103097.44;;;6.56;100.00
19086;BME280;9675;51.538;6.728;2023-02-14T09:08:34;103095.81;;;6.65;100.00
19086;BME280;9675;51.538;6.728;2023-02-14T09:11:06;103089.66;;;6.71;100.00
19086;BME280;9675;51.538;6.728;2023-02-14T09:13:34;103085.16;;;6.77;100.00
19086;BME280;9675;51.538;6.728;2023-02-14T09:16:03;103079.75;;;6.83;100.00
19086;BME280;9675;51.538;6.728;2023-02-14T09:18:31;103078.53;;;6.88;100.00
19086;BME280;9675;51.538;6.728;2023-02-14T09:20:59;103074.63;;;7.00;100.00
19086;BME280;9675;51.538;6.728;2023-02-14T09:23:26;103070.13;;;7.06;100.00
19086;BME280;9675;51.538;6.728;2023-02-14T09:25:59;103067.72;;;7.16;100.00
19086;BME280;9675;51.538;6.728;2023-02-14T09:28:27;103065.75;;;7.22;100.00
19086;BME280;9675;51.538;6.728;2023-02-14T09:30:54;103066.38;;;7.29;100.00
19086;BME280;9675;51.538;6.728;2023-02-14T09:33:21;103051.13;;;7.39;100.00
19086;BME280;9675;51.538;6.728;2023-02-14T09:35:50;103058.66;;;7.46;100.00
19086;BME280;9675;51.538;6.728;2023-02-14T09:38:17;103054.09;;;7.52;100.00
19086;BME280;9675;51.538;6.728;2023-02-14T09:40:45;103055.03;;;7.61;100.00
19086;BME280;9675;51.538;6.728;2023-02-14T09:43:20;103047.31;;;7.69;100.00
19086;BME280;9675;51.538;6.728;2023-02-14T09:45:54;103050.16;;;7.81;100.00
19086;BME280;9675;51.538;6.728;2023-02-14T09:48:30;103051.94;;;7.91;100.00
19086;BME280;9675;51.538;6.728;2023-02-14T09:51:04;103045.25;;;8.01;100.00
19086;BME280;9675;51.538;6.728;2023-02-14T09:53:35;103047.94;;;8.11;100.00
19086;BME280;9675;51.538;6.728;2023-02-14T09:56:11;103052.41;;;8.23;100.00
19086;BME280;9675;51.538;6.728;2023-02-14T09:58:52;103050.91;;;8.33;100.00
19086;BME280;9675;51.538;6.728;2023-02-14T10:01:25;103052.81;;;8.44;100.00
19086;BME280;9675;51.538;6.728;2023-02-14T10:04:21;103045.63;;;8.59;100.00
19086;BME280;9675;51.538;6.728;2023-02-14T10:07:05;103044.94;;;8.70;100.00
19086;BME280;9675;51.538;6.728;2023-02-14T10:09:57;103043.91;;;8.87;100.00
19086;BME280;9675;51.538;6.728;2023-02-14T10:12:30;103047.44;;;8.98;100.00
19086;BME280;9675;51.538;6.728;2023-02-14T10:15:10;103039.81;;;9.08;100.00
19086;BME280;9675;51.538;6.728;2023-02-14T10:17:42;103048.63;;;9.20;100.00
19086;BME280;9675;51.538;6.728;2023-02-14T10:20:20;103045.38;;;9.31;100.00
19086;BME280;9675;51.538;6.728;2023-02-14T10:23:01;103037.22;;;9.45;100.00
19086;BME280;9675;51.538;6.728;2023-02-14T10:25:39;103034.84;;;9.57;100.00
19086;BME280;9675;51.538;6.728;2023-02-14T10:28:13;103035.03;;;9.68;100.00
19086;BME280;9675;51.538;6.728;2023-02-14T10:30:53;103036.47;;;9.85;100.00
19086;BME280;9675;51.538;6.728;2023-02-14T10:33:29;103030.59;;;9.96;100.00
19086;BME280;9675;51.538;6.728;2023-02-14T10:36:10;103033.72;;;10.02;100.00
19086;BME280;9675;51.538;6.728;2023-02-14T10:38:54;103032.63;;;10.19;100.00
19086;BME280;9675;51.538;6.728;2023-02-14T10:41:34;103027.75;;;10.32;100.00
19086;BME280;9675;51.538;6.728;2023-02-14T10:44:21;103021.06;;;10.44;100.00
19086;BME280;9675;51.538;6.728;2023-02-14T10:46:58;103027.28;;;10.56;100.00
19086;BME280;9675;51.538;6.728;2023-02-14T10:49:40;103026.22;;;10.64;100.00
19086;BME280;9675;51.538;6.728;2023-02-14T10:52:20;103025.06;;;10.71;100.00
19086;BME280;9675;51.538;6.728;2023-02-14T10:54:55;103022.50;;;10.81;100.00
19086;BME280;9675;51.538;6.728;2023-02-14T10:57:29;103023.38;;;10.92;100.00
19086;BME280;9675;51.538;6.728;2023-02-14T11:00:00;103021.03;;;11.05;100.00
19086;BME280;9675;51.538;6.728;2023-02-14T11:02:33;103015.97;;;11.17;100.00
19086;BME280;9675;51.538;6.728;2023-02-14T11:05:03;103004.59;;;11.25;100.00
19086;BME280;9675;51.538;6.728;2023-02-14T11:07:32;103004.47;;;11.33;100.00
19086;BME280;9675;51.538;6.728;2023-02-14T11:10:01;103002.63;;;11.42;100.00
19086;BME280;9675;51.538;6.728;2023-02-14T11:12:33;102998.97;;;11.50;100.00
19086;BME280;9675;51.538;6.728;2023-02-14T11:15:19;102995.47;;;11.60;97.93
19086;BME280;9675;51.538;6.728;2023-02-14T11:17:47;102995.03;;;11.76;96.63
19086;BME280;9675;51.538;6.728;2023-02-14T11:20:27;102989.91;;;11.87;94.05
19086;BME280;9675;51.538;6.728;2023-02-14T11:22:56;102986.38;;;11.97;90.84
19086;BME280;9675;51.538;6.728;2023-02-14T11:25:28;102983.84;;;12.09;93.33
19086;BME280;9675;51.538;6.728;2023-02-14T11:28:01;102989.63;;;12.16;90.92
19086;BME280;9675;51.538;6.728;2023-02-14T11:30:34;102986.84;;;12.25;90.24
19086;BME280;9675;51.538;6.728;2023-02-14T11:33:02;102984.19;;;12.35;87.88
19086;BME280;9675;51.538;6.728;2023-02-14T11:35:31;102987.34;;;12.43;84.84
19086;BME280;9675;51.538;6.728;2023-02-14T11:38:02;102990.63;;;12.52;86.74
19086;BME280;9675;51.538;6.728;2023-02-14T11:40:34;102978.84;;;12.55;85.55
19086;BME280;9675;51.538;6.728;2023-02-14T11:43:18;102984.69;;;12.64;82.54
19086;BME280;9675;51.538;6.728;2023-02-14T11:45:47;102974.94;;;12.72;84.26
19086;BME280;9675;51.538;6.728;2023-02-14T11:48:19;102964.28;;;12.79;82.07
19086;BME280;9675;51.538;6.728;2023-02-14T11:50:56;102964.72;;;12.85;82.25
19086;BME280;9675;51.538;6.728;2023-02-14T11:53:31;102949.91;;;12.94;79.87
19086;BME280;9675;51.538;6.728;2023-02-14T11:56:01;102954.19;;;13.05;80.39
19086;BME280;9675;51.538;6.728;2023-02-14T11:58:33;102950.47;;;13.13;78.83
19086;BME280;9675;51.538;6.728;2023-02-14T12:01:03;102952.75;;;13.21;78.08
19086;BME280;9675;51.538;6.728;2023-02-14T12:03:38;102944.53;;;13.26;77.85
19086;BME280;9675;51.538;6.728;2023-02-14T12:06:09;102940.66;;;13.33;78.51
19086;BME280;9675;51.538;6.728;2023-02-14T12:08:37;102932.25;;;13.35;78.06
19086;BME280;9675;51.538;6.728;2023-02-14T12:11:20;102934.47;;;13.42;78.56
19086;BME280;9675;51.538;6.728;2023-02-14T12:13:55;102938.38;;;13.49;76.52
19086;BME280;9675;51.538;6.728;2023-02-14T12:16:29;102935.47;;;13.56;77.44
19086;BME280;9675;51.538;6.728;2023-02-14T12:19:02;102925.75;;;13.65;74.31
19086;BME280;9675;51.538;6.728;2023-02-14T12:21:45;102922.22;;;13.76;74.40
19086;BME280;9675;51.538;6.728;2023-02-14T12:24:25;102914.00;;;13.82;74.95
19086;BME280;9675;51.538;6.728;2023-02-14T12:27:05;102909.13;;;13.86;74.80
19086;BME280;9675;51.538;6.728;2023-02-14T12:29:40;102903.16;;;13.87;74.87
19086;BME280;9675;51.538;6.728;2023-02-14T12:32:19;102900.16;;;13.94;73.63
19086;BME280;9675;51.538;6.728;2023-02-14T12:34:48;102893.84;;;14.02;72.28
19086;BME280;9675;51.538;6.728;2023-02-14T12:37:36;102888.59;;;14.14;71.83
19086;BME280;9675;51.538;6.728;2023-02-14T12:40:21;102893.50;;;14.23;71.62
19086;BME280;9675;51.538;6.728;2023-02-14T12:43:24;102877.47;;;14.28;71.86
19086;BME280;9675;51.538;6.728;2023-02-14T12:46:15;102877.59;;;14.30;71.10
19086;BME280;9675;51.538;6.728;2023-02-14T12:49:03;102879.84;;;14.50;67.74
19086;BME280;9675;51.538;6.728;2023-02-14T12:51:40;102884.53;;;14.56;68.42
19086;BME280;9675;51.538;6.728;2023-02-14T12:54:33;102869.94;;;14.58;68.29
19086;BME280;9675;51.538;6.728;2023-02-14T12:57:09;102870.19;;;14.61;68.20
19086;BME280;9675;51.538;6.728;2023-02-14T12:59:55;102867.06;;;14.66;68.29
19086;BME280;9675;51.538;6.728;2023-02-14T13:02:59;102861.28;;;14.70;67.53
19086;BME280;9675;51.538;6.728;2023-02-14T13:05:44;102858.78;;;14.85;67.36
19086;BME280;9675;51.538;6.728;2023-02-14T13:08:53;102857.69;;;14.95;65.91
19086;BME280;9675;51.538;6.728;2023-02-14T13:11:40;102839.13;;;15.02;65.14
19086;BME280;9675;51.538;6.728;2023-02-14T13:14:38;102838.69;;;15.09;65.13
19086;BME280;9675;51.538;6.728;2023-02-14T13:17:18;102841.06;;;15.19;64.78
19086;BME280;9675;51.538;6.728;2023-02-14T13:19:56;102836.97;;;15.22;64.74
19086;BME280;9675;51.538;6.728;2023-02-14T13:22:29;102844.03;;;15.25;64.35
19086;BME280;9675;51.538;6.728;2023-02-14T13:25:03;102833.88;;;15.28;64.43
19086;BME280;9675;51.538;6.728;2023-02-14T13:27:36;102835.34;;;15.24;63.79
19086;BME280;9675;51.538;6.728;2023-02-14T13:30:15;102834.38;;;15.22;63.70